Time;durP1;ratioP1;P1;durP2;ratioP2;P2;SDS_P1;SDS_P2;PMS_P1;PMS_P2;Temp;Humidity;BMP_temperature;BMP_pressure;BME280_temperature;BME280_humidity;BME280_pressure;Samples;Min_cycle;Max_cycle;Signal;HPM_P1;HPM_P2
2021/04/25 05:32:45;;;;;;;0.98;0.90;;;21.20;47.10;;;;;;5052521;28;20374;-36
2021/04/25 05:35:10;;;;;;;1.02;1.02;;;21.60;46.80;;;;;;5049039;28;20081;-38
2021/04/25 05:37:39;;;;;;;0.93;0.93;;;21.70;46.60;;;;;;5050433;28;20029;-48
2021/04/25 05:40:06;;;;;;;1.20;1.10;;;21.80;46.40;;;;;;5046789;28;20061;-38
2021/04/25 05:42:32;;;;;;;1.20;1.20;;;21.90;46.10;;;;;;5047775;28;20033;-38
2021/04/25 05:44:57;;;;;;;0.85;0.85;;;22.00;46.00;;;;;;5045906;28;20065;-35
2021/04/25 05:47:23;;;;;;;1.20;1.20;;;22.10;45.90;;;;;;5051523;28;20415;-38
2021/04/25 05:49:49;;;;;;;1.30;1.20;;;22.10;45.60;;;;;;5047957;28;20500;-34
2021/04/25 05:52:14;;;;;;;1.25;1.25;;;22.10;45.50;;;;;;5047254;28;20029;-30
2021/04/25 05:54:40;;;;;;;1.13;1.13;;;22.20;46.10;;;;;;5046888;28;20395;-37
2021/04/25 05:57:07;;;;;;;0.90;0.90;;;22.20;45.40;;;;;;5050360;28;20032;-37
2021/04/25 05:59:34;;;;;;;0.88;0.88;;;22.20;45.40;;;;;;5058506;28;20068;-35
2021/04/25 06:01:59;;;;;;;1.13;1.13;;;22.20;45.30;;;;;;5059730;28;20292;-35
2021/04/25 06:04:25;;;;;;;0.88;0.88;;;22.20;45.30;;;;;;5050988;28;20486;-35
2021/04/25 06:06:50;;;;;;;1.05;1.05;;;22.20;45.40;;;;;;5049778;28;20034;-33
2021/04/25 06:09:16;;;;;;;1.10;1.10;;;22.20;45.30;;;;;;5050272;28;20075;-33
2021/04/25 06:11:41;;;;;;;1.15;1.10;;;22.20;45.40;;;;;;5046215;28;20042;-37
2021/04/25 06:14:07;;;;;;;1.15;1.15;;;22.20;46.00;;;;;;5046033;28;20547;-38
2021/04/25 06:16:33;;;;;;;1.30;1.30;;;22.20;45.50;;;;;;5043150;28;20135;-35
2021/04/25 06:18:58;;;;;;;1.20;1.20;;;22.20;46.30;;;;;;5045420;28;20037;-39
2021/04/25 06:21:25;;;;;;;1.10;1.10;;;22.20;46.00;;;;;;5046369;28;20030;-38
2021/04/25 06:23:51;;;;;;;1.30;1.30;;;22.20;45.80;;;;;;5033213;28;20067;-36
2021/04/25 06:26:17;;;;;;;1.40;1.30;;;22.20;45.90;;;;;;5039280;28;20079;-33
2021/04/25 06:28:42;;;;;;;1.10;1.10;;;22.30;45.90;;;;;;5043142;28;20457;-37
2021/04/25 06:31:08;;;;;;;1.50;1.50;;;22.30;45.90;;;;;;5040081;28;20067;-36
2021/04/25 06:33:33;;;;;;;1.80;1.70;;;22.20;46.10;;;;;;5026916;28;20501;-35
2021/04/25 06:35:59;;;;;;;1.55;1.45;;;22.20;46.00;;;;;;5028912;28;20575;-40
2021/04/25 06:38:24;;;;;;;1.60;1.50;;;22.20;45.90;;;;;;5024316;28;20037;-34
2021/04/25 06:40:50;;;;;;;1.30;1.30;;;22.30;46.60;;;;;;5030575;28;20586;-42
2021/04/25 06:43:16;;;;;;;1.30;1.20;;;22.30;46.10;;;;;;5028073;28;20036;-39
2021/04/25 06:45:42;;;;;;;1.60;1.50;;;22.30;46.10;;;;;;5027996;28;20021;-35
2021/04/25 06:48:08;;;;;;;1.50;1.40;;;22.30;45.90;;;;;;5027569;28;20510;-38
2021/04/25 06:50:34;;;;;;;1.45;1.35;;;22.30;45.90;;;;;;5027745;28;20065;-36
2021/04/25 06:52:59;;;;;;;1.25;1.23;;;22.30;45.90;;;;;;5027870;28;20029;-31
2021/04/25 06:55:25;;;;;;;1.85;1.75;;;22.30;45.90;;;;;;5026884;28;20028;-38
2021/04/25 06:57:51;;;;;;;2.22;1.30;;;22.30;46.00;;;;;;5023996;28;20434;-36
2021/04/25 07:00:17;;;;;;;1.33;1.23;;;22.30;46.10;;;;;;5026451;28;20057;-37
2021/04/25 07:02:43;;;;;;;1.13;1.13;;;22.30;46.10;;;;;;5027669;28;20025;-39
2021/04/25 07:05:09;;;;;;;1.30;1.30;;;22.30;46.60;;;;;;5028990;28;20048;-37
2021/04/25 07:07:34;;;;;;;1.30;1.30;;;22.30;46.10;;;;;;5031763;28;20033;-39
2021/04/25 07:10:00;;;;;;;1.70;1.60;;;22.30;46.30;;;;;;5026208;28;20045;-36
2021/04/25 07:12:26;;;;;;;1.55;1.40;;;22.20;46.20;;;;;;5024495;28;20533;-35
2021/04/25 07:14:53;;;;;;;1.73;1.52;;;22.30;46.30;;;;;;5028020;28;20540;-37
2021/04/25 07:17:18;;;;;;;1.48;1.38;;;22.30;46.50;;;;;;5026250;28;20080;-37
2021/04/25 07:19:44;;;;;;;1.42;1.33;;;22.30;46.30;;;;;;5029890;28;20026;-38
2021/04/25 07:22:10;;;;;;;1.70;1.55;;;22.40;46.20;;;;;;5029847;28;20120;-40
2021/04/25 07:24:36;;;;;;;1.60;1.50;;;22.40;46.00;;;;;;5027712;28;20060;-33
2021/04/25 07:27:02;;;;;;;1.63;1.52;;;22.50;45.90;;;;;;5030190;28;20017;-34
2021/04/25 07:29:28;;;;;;;5.18;1.45;;;22.60;45.90;;;;;;5025061;28;20037;-32
2021/04/25 07:31:54;;;;;;;1.50;1.40;;;22.50;46.00;;;;;;5031731;28;20041;-34
2021/04/25 07:34:19;;;;;;;1.60;1.50;;;22.50;46.10;;;;;;5031956;28;20035;-38
2021/04/25 07:36:45;;;;;;;1.40;1.30;;;22.50;46.20;;;;;;5027330;28;20503;-37
2021/04/25 07:39:11;;;;;;;1.38;1.38;;;22.50;46.10;;;;;;5025619;28;20104;-39
2021/04/25 07:41:36;;;;;;;1.38;1.30;;;22.50;46.30;;;;;;5024426;28;20037;-37
2021/04/25 07:44:02;;;;;;;1.27;1.23;;;22.50;46.20;;;;;;5028742;28;20030;-36
2021/04/25 07:46:27;;;;;;;1.23;1.13;;;22.60;46.30;;;;;;5031558;28;20184;-36
2021/04/25 07:48:53;;;;;;;1.58;1.48;;;22.60;46.30;;;;;;5031443;28;20584;-36
2021/04/25 07:51:19;;;;;;;1.50;1.40;;;22.60;46.30;;;;;;5026987;28;20653;-37
2021/04/25 07:53:44;;;;;;;1.30;1.25;;;22.60;46.30;;;;;;5026893;28;20021;-37
2021/04/25 07:56:12;;;;;;;1.30;1.30;;;22.70;46.40;;;;;;5023981;28;20441;-40
2021/04/25 07:58:37;;;;;;;1.10;1.10;;;22.60;46.30;;;;;;5026485;28;20577;-38
2021/04/25 08:01:04;;;;;;;1.20;1.20;;;22.60;47.60;;;;;;5025712;28;20071;-40
2021/04/25 08:03:30;;;;;;;1.70;1.40;;;22.40;47.50;;;;;;5026028;28;20025;-40
2021/04/25 08:05:56;;;;;;;1.20;1.20;;;22.20;48.10;;;;;;5024728;28;20037;-41
2021/04/25 08:08:22;;;;;;;1.30;1.30;;;22.10;48.40;;;;;;5024100;28;20099;-40
2021/04/25 08:10:48;;;;;;;1.60;1.50;;;22.10;48.40;;;;;;5024611;28;20145;-35
2021/04/25 08:13:13;;;;;;;2.58;1.40;;;22.10;48.60;;;;;;5024475;28;20064;-39
2021/04/25 08:15:39;;;;;;;2.03;1.30;;;22.20;48.10;;;;;;5025434;28;20033;-37
2021/04/25 08:18:04;;;;;;;1.70;1.30;;;22.20;48.40;;;;;;5024493;28;20505;-37
2021/04/25 08:20:30;;;;;;;1.88;1.45;;;22.10;48.30;;;;;;5022878;28;20055;-36
2021/04/25 08:22:55;;;;;;;1.63;1.52;;;22.10;48.40;;;;;;5026141;28;20034;-39
2021/04/25 08:25:21;;;;;;;1.70;1.60;;;22.30;47.70;;;;;;5023641;28;20102;-38
2021/04/25 08:27:46;;;;;;;1.90;1.40;;;22.20;47.80;;;;;;5024256;28;20577;-38
2021/04/25 08:30:12;;;;;;;1.30;1.30;;;22.30;47.60;;;;;;5016134;28;20029;-39
2021/04/25 08:32:38;;;;;;;1.30;1.30;;;22.40;47.20;;;;;;5023334;28;20064;-39
2021/04/25 08:35:06;;;;;;;1.20;1.10;;;22.50;47.10;;;;;;5025511;28;20415;-38
2021/04/25 08:37:33;;;;;;;3.90;1.35;;;22.50;47.10;;;;;;5057978;28;20034;-37
2021/04/25 08:39:58;;;;;;;0.95;0.95;;;22.50;47.20;;;;;;5018345;28;20030;-38
2021/04/25 08:42:25;;;;;;;1.60;1.40;;;22.50;47.80;;;;;;5021172;28;20585;-37
2021/04/25 08:44:53;;;;;;;1.45;1.45;;;22.50;47.20;;;;;;5021751;28;20029;-37
2021/04/25 08:47:19;;;;;;;1.30;1.30;;;22.50;47.00;;;;;;5023509;28;20507;-40
2021/04/25 08:49:47;;;;;;;1.20;1.20;;;22.60;47.10;;;;;;5026299;28;20037;-35
2021/04/25 08:52:12;;;;;;;1.38;1.38;;;22.60;47.20;;;;;;5023394;28;20533;-40
2021/04/25 08:54:38;;;;;;;1.27;1.27;;;22.70;47.30;;;;;;5021200;28;20395;-36
2021/04/25 08:57:04;;;;;;;1.40;1.30;;;22.80;47.30;;;;;;5021914;28;20415;-39
2021/04/25 08:59:29;;;;;;;0.98;0.98;;;22.90;47.20;;;;;;5022701;28;20415;-36
2021/04/25 09:01:55;;;;;;;1.27;1.25;;;22.90;47.10;;;;;;5026111;28;20091;-37
2021/04/25 09:04:22;;;;;;;1.10;1.10;;;23.00;47.00;;;;;;5025347;28;20041;-41
2021/04/25 09:07:04;;;;;;;1.17;1.13;;;23.00;47.00;;;;;;5021707;28;20063;-38
2021/04/25 09:09:52;;;;;;;1.10;1.10;;;23.00;46.90;;;;;;5019768;28;21244;-34
2021/04/25 09:12:40;;;;;;;1.20;1.20;;;23.10;46.70;;;;;;5026078;28;20036;-36
2021/04/25 09:15:14;;;;;;;1.10;1.10;;;23.10;46.60;;;;;;4983370;28;10001386;-38
2021/04/25 09:17:59;;;;;;;1.17;1.17;;;23.10;46.80;;;;;;5020799;28;20234;-39
2021/04/25 09:20:38;;;;;;;1.00;1.00;;;23.10;46.50;;;;;;5018750;28;20025;-37
2021/04/25 09:23:04;;;;;;;1.20;1.20;;;23.20;46.30;;;;;;5023763;28;20140;-45
2021/04/25 09:25:30;;;;;;;1.00;1.00;;;23.30;46.40;;;;;;5020785;28;20506;-41
2021/04/25 09:28:14;;;;;;;1.33;1.23;;;23.30;46.40;;;;;;5018143;28;20033;-36
2021/04/25 09:30:41;;;;;;;0.98;0.98;;;23.30;46.20;;;;;;5016059;28;20050;-39
2021/04/25 09:33:10;;;;;;;1.00;1.00;;;23.40;46.20;;;;;;5017285;28;20569;-36
2021/04/25 09:35:37;;;;;;;0.90;0.90;;;23.40;46.10;;;;;;5018613;28;20034;-39
2021/04/25 09:38:09;;;;;;;1.30;1.20;;;23.40;46.10;;;;;;5023534;28;20041;-43
2021/04/25 09:40:40;;;;;;;1.08;1.08;;;23.40;45.90;;;;;;5025310;28;20536;-39
2021/04/25 09:43:07;;;;;;;0.80;0.80;;;23.40;45.90;;;;;;5026276;28;20065;-39
2021/04/25 09:45:40;;;;;;;0.90;0.90;;;23.40;46.00;;;;;;5026872;28;20079;-37
2021/04/25 09:48:40;;;;;;;0.95;0.95;;;23.50;45.90;;;;;;5021834;28;20041;-37
2021/04/25 09:51:23;;;;;;;0.95;0.93;;;23.50;45.90;;;;;;4978417;28;20038;-38
2021/04/25 09:53:51;;;;;;;1.55;1.08;;;23.40;45.90;;;;;;4980173;28;20504;-38
2021/04/25 09:56:21;;;;;;;1.17;0.80;;;23.40;46.70;;;;;;4981328;28;20034;-39
2021/04/25 09:58:58;;;;;;;1.00;0.90;;;23.40;46.00;;;;;;4985086;28;20112;-42
2021/04/25 10:01:34;;;;;;;1.38;1.27;;;23.40;45.90;;;;;;4966265;28;20135;-38
2021/04/25 10:04:00;;;;;;;1.13;1.02;;;23.40;45.90;;;;;;4985145;28;20082;-37
2021/04/25 10:06:29;;;;;;;0.82;0.82;;;23.40;45.80;;;;;;4981981;28;20493;-39
2021/04/25 10:08:55;;;;;;;1.00;1.00;;;23.40;45.80;;;;;;4968607;28;20120;-38
2021/04/25 10:11:22;;;;;;;1.00;1.00;;;23.50;45.90;;;;;;4984769;28;20129;-37
2021/04/25 10:13:47;;;;;;;0.90;0.90;;;23.40;46.50;;;;;;4993080;28;20042;-35
2021/04/25 10:16:14;;;;;;;0.90;0.90;;;23.50;45.80;;;;;;4988753;28;20041;-37
2021/04/25 10:18:40;;;;;;;1.02;1.00;;;23.50;45.70;;;;;;4988462;28;20200;-38
2021/04/25 10:21:05;;;;;;;1.00;1.00;;;23.50;45.70;;;;;;4983846;28;20129;-37
2021/04/25 10:23:31;;;;;;;0.95;0.95;;;23.50;45.70;;;;;;4987318;28;20069;-37
2021/04/25 10:25:57;;;;;;;1.45;1.00;;;23.50;45.80;;;;;;4994620;28;20060;-39
2021/04/25 10:28:36;;;;;;;0.80;0.80;;;23.50;45.90;;;;;;5011102;28;20082;-38
2021/04/25 10:31:04;;;;;;;1.17;1.17;;;23.50;45.80;;;;;;5032526;28;20058;-37
2021/04/25 10:34:00;;;;;;;1.05;1.05;;;23.50;46.10;;;;;;5034431;28;20057;-40
2021/04/25 10:36:46;;;;;;;2.28;0.93;;;23.40;47.20;;;;;;5024157;28;20616;-37
2021/04/25 10:39:45;;;;;;;1.45;1.25;;;23.40;47.00;;;;;;5034555;28;20491;-39
2021/04/25 10:42:30;;;;;;;0.88;0.85;;;23.40;47.20;;;;;;5019719;28;20041;-40
2021/04/25 10:44:59;;;;;;;1.13;1.10;;;23.50;47.90;;;;;;5025668;28;20535;-39
2021/04/25 10:47:25;;;;;;;2.35;1.30;;;23.40;48.00;;;;;;5023096;28;20636;-39
2021/04/25 10:49:51;;;;;;;0.90;0.90;;;23.40;48.10;;;;;;5020330;28;20030;-36
2021/04/25 10:52:23;;;;;;;1.15;1.05;;;23.50;47.80;;;;;;5020272;28;20056;-35
2021/04/25 10:55:20;;;;;;;2.45;1.50;;;23.50;48.30;;;;;;5020665;28;20040;-39
2021/04/25 11:00:39;;;;;;;1.10;1.10;;;23.60;47.70;;;;;;5019795;28;20029;-37
2021/04/25 11:03:06;;;;;;;2.45;1.55;;;23.60;48.00;;;;;;5020601;28;20044;-36
2021/04/25 11:05:38;;;;;;;1.63;1.52;;;23.60;47.80;;;;;;5021015;28;20472;-37
2021/04/25 11:08:12;;;;;;;2.42;1.60;;;23.60;47.60;;;;;;5021843;28;20483;-35
2021/04/25 11:10:47;;;;;;;1.60;1.50;;;23.60;47.60;;;;;;5021477;28;20127;-40
2021/04/25 11:13:35;;;;;;;1.90;1.80;;;23.70;47.60;;;;;;5020409;28;20037;-35
2021/04/25 11:16:17;;;;;;;2.53;1.63;;;23.60;47.40;;;;;;5020103;28;20025;-40
2021/04/25 11:19:05;;;;;;;2.22;2.03;;;23.70;47.40;;;;;;5020085;28;20033;-38
2021/04/25 11:24:05;;;;;;;1.80;1.70;;;23.70;47.60;;;;;;5020396;28;20044;-38
2021/04/25 11:26:34;;;;;;;1.90;1.80;;;23.70;47.70;;;;;;4669397;28;10000395;-38
2021/04/25 11:29:03;;;;;;;1.90;1.80;;;23.80;47.60;;;;;;5017517;28;20036;-36
2021/04/25 11:31:54;;;;;;;2.08;1.95;;;23.70;47.80;;;;;;5016796;28;20056;-35
2021/04/25 11:34:25;;;;;;;2.38;2.17;;;23.70;47.70;;;;;;5019107;28;20786;-39
2021/04/25 11:37:01;;;;;;;2.63;2.35;;;23.80;47.80;;;;;;5018269;28;20128;-38
2021/04/25 11:39:47;;;;;;;2.65;2.35;;;23.80;47.10;;;;;;5017542;28;20033;-39
2021/04/25 11:42:22;;;;;;;5.05;2.30;;;23.80;47.30;;;;;;5019287;28;20030;-35
2021/04/25 11:44:48;;;;;;;2.42;2.22;;;23.70;47.20;;;;;;5018848;28;20084;-36
2021/04/25 11:47:16;;;;;;;2.72;2.00;;;23.80;47.30;;;;;;5018537;28;20511;-43
2021/04/25 11:49:46;;;;;;;2.70;2.50;;;23.70;47.10;;;;;;5019830;28;20014;-37
2021/04/25 11:52:22;;;;;;;2.70;2.50;;;23.80;46.90;;;;;;5016284;28;20055;-39
2021/04/25 11:54:57;;;;;;;2.50;2.15;;;23.80;47.10;;;;;;5014365;28;20868;-40
2021/04/25 11:57:23;;;;;;;3.00;2.47;;;23.90;46.80;;;;;;5011562;28;20080;-35
2021/04/25 11:59:52;;;;;;;4.82;2.70;;;23.90;47.00;;;;;;5033531;28;20041;-40
2021/04/25 12:02:18;;;;;;;5.63;2.47;;;23.80;46.90;;;;;;5029836;28;20049;-37
2021/04/25 12:04:45;;;;;;;2.95;2.58;;;23.80;46.80;;;;;;5030679;28;20053;-39
2021/04/25 12:07:10;;;;;;;2.47;2.25;;;23.90;46.90;;;;;;5016851;28;20043;-42
2021/04/25 12:09:37;;;;;;;2.70;2.35;;;23.80;46.90;;;;;;5023194;28;20045;-44
2021/04/25 12:12:06;;;;;;;3.28;2.97;;;23.80;46.90;;;;;;5024824;28;20041;-42
2021/04/25 12:14:32;;;;;;;3.03;2.65;;;23.80;46.60;;;;;;5022950;28;20025;-41
2021/04/25 12:17:13;;;;;;;4.05;2.92;;;23.80;46.80;;;;;;5027883;28;20047;-41
2021/04/25 12:19:39;;;;;;;3.15;2.85;;;23.80;47.10;;;;;;5025209;28;20069;-41
2021/04/25 12:22:04;;;;;;;4.10;2.53;;;23.90;46.70;;;;;;5024337;28;20571;-39
2021/04/25 12:24:30;;;;;;;4.45;2.47;;;24.00;46.50;;;;;;5023396;28;20065;-40
2021/04/25 12:26:56;;;;;;;3.08;2.50;;;23.90;46.70;;;;;;5023865;28;20059;-41
2021/04/25 12:29:35;;;;;;;5.15;2.63;;;23.80;47.80;;;;;;5023293;28;20025;-41
2021/04/25 12:32:01;;;;;;;4.40;2.78;;;23.90;46.60;;;;;;5025002;28;20053;-39
2021/04/25 12:34:31;;;;;;;5.20;3.17;;;23.70;47.00;;;;;;5024629;28;20143;-42
2021/04/25 12:36:58;;;;;;;5.82;2.67;;;23.70;48.00;;;;;;5025604;28;20034;-38
2021/04/25 12:39:24;;;;;;;2.70;2.50;;;23.80;47.10;;;;;;5025308;28;20032;-45
2021/04/25 12:41:51;;;;;;;4.32;2.42;;;23.70;47.20;;;;;;5023506;28;20021;-38
2021/04/25 12:44:18;;;;;;;3.72;2.60;;;23.70;47.20;;;;;;5026498;28;20051;-39
2021/04/25 12:46:57;;;;;;;2.83;2.38;;;23.60;47.10;;;;;;5028201;28;20095;-39
2021/04/25 12:49:39;;;;;;;3.08;2.35;;;23.60;47.00;;;;;;5025592;28;20604;-39
2021/04/25 12:52:05;;;;;;;2.75;2.47;;;23.60;46.90;;;;;;5022543;28;20046;-39
2021/04/25 12:54:38;;;;;;;3.90;2.50;;;23.60;46.90;;;;;;5023426;28;20426;-39
2021/04/25 12:57:04;;;;;;;2.42;2.13;;;23.60;46.50;;;;;;5024543;28;20026;-41
2021/04/25 12:59:37;;;;;;;2.65;2.42;;;23.60;46.70;;;;;;5025903;28;20041;-39
2021/04/25 13:02:02;;;;;;;4.05;2.30;;;23.60;46.40;;;;;;5026650;28;20502;-40
2021/04/25 13:04:38;;;;;;;3.10;2.13;;;23.60;46.50;;;;;;5025448;28;20037;-39
2021/04/25 13:07:17;;;;;;;3.22;2.25;;;23.60;46.60;;;;;;5024716;28;20033;-41
2021/04/25 13:10:02;;;;;;;2.53;2.42;;;23.60;46.30;;;;;;5025509;28;20104;-41
2021/04/25 13:12:28;;;;;;;;;;;23.60;45.70;;;;;;5023632;28;20042;-38
2021/04/25 13:14:59;;;;;;;2.67;2.00;;;23.70;45.10;;;;;;5024396;28;19919;-42
2021/04/25 13:17:26;;;;;;;2.60;2.40;;;23.70;45.40;;;;;;5025510;28;20033;-41
2021/04/25 13:19:53;;;;;;;2.30;2.10;;;23.70;45.40;;;;;;5027814;28;20039;-37
2021/04/25 13:22:19;;;;;;;2.40;2.13;;;23.80;45.10;;;;;;5024060;28;20033;-40
2021/04/25 13:24:45;;;;;;;2.00;1.90;;;23.70;45.00;;;;;;5024272;28;20720;-37
2021/04/25 13:27:13;;;;;;;1.95;1.85;;;23.70;44.80;;;;;;5025484;28;20026;-40
2021/04/25 13:29:38;;;;;;;5.97;2.53;;;23.70;44.90;;;;;;5023197;28;21083;-42
2021/04/25 13:32:04;;;;;;;2.80;2.05;;;23.70;45.40;;;;;;5027067;28;20046;-38
2021/04/25 13:34:30;;;;;;;2.25;2.15;;;23.70;44.60;;;;;;5024651;28;20026;-42
2021/04/25 13:36:55;;;;;;;2.40;2.20;;;23.70;44.50;;;;;;5024755;28;20040;-40
2021/04/25 13:39:21;;;;;;;2.33;2.13;;;23.60;43.60;;;;;;5024017;28;20032;-42
2021/04/25 13:41:46;;;;;;;2.28;2.17;;;23.60;44.00;;;;;;5025379;28;20701;-36
2021/04/25 13:44:12;;;;;;;3.03;2.72;;;23.70;44.30;;;;;;5029631;28;20040;-39
2021/04/25 13:46:38;;;;;;;2.75;2.35;;;23.80;43.80;;;;;;5031295;28;20082;-39
2021/04/25 13:49:04;;;;;;;2.75;2.47;;;23.80;44.30;;;;;;5027674;28;20033;-40
2021/04/25 13:51:36;;;;;;;2.38;2.25;;;23.70;44.00;;;;;;5027572;28;20042;-40
2021/04/25 13:54:02;;;;;;;2.92;2.30;;;23.70;43.30;;;;;;5028411;28;20065;-40
2021/04/25 13:56:28;;;;;;;2.38;2.28;;;23.80;43.80;;;;;;5028460;28;20033;-34
2021/04/25 13:58:53;;;;;;;3.42;2.45;;;23.80;43.60;;;;;;5031228;28;20036;-36
2021/04/25 14:01:19;;;;;;;2.50;2.30;;;24.00;43.90;;;;;;5026888;28;20427;-39
2021/04/25 14:03:45;;;;;;;2.53;2.33;;;24.00;42.80;;;;;;5028155;28;20096;-42
2021/04/25 14:06:11;;;;;;;2.80;2.08;;;24.00;43.10;;;;;;5027006;28;20091;-39
2021/04/25 14:08:37;;;;;;;2.78;2.42;;;24.00;43.10;;;;;;5026439;28;20403;-39
2021/04/25 14:11:03;;;;;;;2.92;2.63;;;23.90;43.00;;;;;;5027935;28;20033;-40
2021/04/25 14:13:28;;;;;;;2.60;2.40;;;24.00;42.80;;;;;;5027920;28;20029;-36
2021/04/25 14:15:54;;;;;;;2.65;2.30;;;23.90;43.10;;;;;;5027576;28;20124;-36
2021/04/25 14:18:20;;;;;;;2.15;2.05;;;23.80;44.80;;;;;;5027583;28;20044;-37
2021/04/25 14:20:45;;;;;;;2.65;2.35;;;23.70;44.10;;;;;;5026023;28;20416;-40
2021/04/25 14:23:11;;;;;;;2.30;2.20;;;23.70;44.40;;;;;;5028902;28;20128;-38
2021/04/25 14:25:36;;;;;;;2.15;2.03;;;23.60;44.50;;;;;;5029957;28;20045;-49
2021/04/25 14:28:02;;;;;;;2.55;2.03;;;23.60;44.20;;;;;;5027025;28;20053;-39
2021/04/25 14:30:30;;;;;;;1.90;1.80;;;23.70;44.70;;;;;;5026116;28;20597;-39
2021/04/25 14:32:56;;;;;;;2.00;1.80;;;23.80;43.70;;;;;;5027309;28;20152;-38
2021/04/25 14:35:22;;;;;;;2.50;2.20;;;23.80;43.90;;;;;;5028490;28;20044;-35
2021/04/25 14:37:48;;;;;;;2.00;1.90;;;23.90;43.20;;;;;;5030258;28;20050;-39
2021/04/25 14:40:14;;;;;;;2.00;1.88;;;23.80;43.50;;;;;;5027994;28;20426;-41
2021/04/25 14:42:40;;;;;;;3.65;1.88;;;23.90;43.20;;;;;;5026885;28;20060;-39
2021/04/25 14:45:07;;;;;;;1.70;1.60;;;23.90;42.60;;;;;;5025780;28;20045;-41
2021/04/25 14:47:33;;;;;;;1.50;1.40;;;23.90;42.60;;;;;;5027026;28;20054;-39
2021/04/25 14:49:58;;;;;;;1.80;1.60;;;23.90;42.10;;;;;;5029255;28;20048;-36
2021/04/25 14:52:24;;;;;;;2.08;1.73;;;23.80;42.60;;;;;;5024522;28;20120;-41
2021/04/25 14:54:50;;;;;;;1.83;1.73;;;23.90;43.60;;;;;;5026669;28;20045;-41
2021/04/25 14:57:15;;;;;;;1.90;1.75;;;23.90;42.60;;;;;;5020093;28;20045;-42
2021/04/25 14:59:41;;;;;;;1.92;1.60;;;23.90;41.80;;;;;;5023748;28;20511;-41
2021/04/25 15:02:07;;;;;;;1.85;1.75;;;23.80;42.80;;;;;;5025584;28;20367;-42
2021/04/25 15:04:33;;;;;;;1.85;1.50;;;24.00;42.90;;;;;;5024486;28;20595;-42
2021/04/25 15:06:58;;;;;;;1.67;1.58;;;24.10;42.40;;;;;;5022182;28;20049;-41
2021/04/25 15:09:24;;;;;;;1.90;1.80;;;24.10;42.90;;;;;;5025761;28;20037;-44
2021/04/25 15:11:49;;;;;;;1.67;1.27;;;24.10;42.60;;;;;;5025515;28;20049;-43
2021/04/25 15:14:15;;;;;;;1.50;1.40;;;24.10;43.00;;;;;;5022745;28;20648;-43
2021/04/25 15:16:41;;;;;;;2.65;1.70;;;23.90;42.90;;;;;;5028055;28;20048;-43
2021/04/25 15:19:06;;;;;;;1.52;1.40;;;24.00;43.80;;;;;;5023426;28;20128;-41
2021/04/25 15:21:32;;;;;;;1.60;1.50;;;24.00;43.30;;;;;;5025901;28;20120;-43
2021/04/25 15:23:57;;;;;;;1.40;1.30;;;24.10;44.00;;;;;;5021395;28;20140;-43
2021/04/25 15:26:23;;;;;;;1.30;1.20;;;24.00;42.50;;;;;;5022812;28;20024;-40
2021/04/25 15:28:48;;;;;;;1.85;1.75;;;24.10;42.70;;;;;;5026781;28;20052;-42
2021/04/25 15:31:14;;;;;;;1.48;1.38;;;24.00;42.80;;;;;;5025773;28;20041;-41
2021/04/25 15:33:40;;;;;;;1.58;1.40;;;24.10;42.90;;;;;;5024472;28;20129;-41
2021/04/25 15:36:06;;;;;;;1.73;1.30;;;24.10;42.10;;;;;;5023852;28;20400;-44
2021/04/25 15:38:32;;;;;;;2.45;2.00;;;24.10;42.90;;;;;;5027531;28;20078;-41
2021/04/25 15:40:57;;;;;;;1.65;1.40;;;24.20;42.20;;;;;;5028092;28;20114;-41
2021/04/25 15:43:24;;;;;;;2.80;1.10;;;24.00;41.80;;;;;;5023484;28;20140;-42
2021/04/25 15:45:51;;;;;;;1.48;1.30;;;24.00;42.80;;;;;;5026804;28;20511;-43
2021/04/25 15:48:18;;;;;;;1.25;1.15;;;24.20;42.70;;;;;;5023767;28;20053;-42
2021/04/25 15:50:43;;;;;;;2.17;1.10;;;24.30;41.60;;;;;;5024831;28;20462;-41
2021/04/25 15:53:09;;;;;;;1.73;1.50;;;24.30;42.60;;;;;;5023733;28;20052;-39
2021/04/25 15:55:35;;;;;;;3.85;1.58;;;24.20;42.60;;;;;;5026587;28;20136;-43
2021/04/25 15:58:04;;;;;;;1.42;1.20;;;24.30;42.20;;;;;;5024816;28;20041;-36
2021/04/25 16:00:30;;;;;;;1.90;1.20;;;24.20;42.00;;;;;;5027248;28;20025;-40
2021/04/25 16:02:55;;;;;;;1.50;1.30;;;24.30;42.40;;;;;;5024420;28;20111;-40
2021/04/25 16:05:21;;;;;;;2.25;1.30;;;24.30;41.90;;;;;;5022265;28;20041;-38
2021/04/25 16:07:47;;;;;;;2.55;1.20;;;24.30;41.70;;;;;;5028297;28;20045;-40
2021/04/25 16:10:19;;;;;;;4.43;1.20;;;24.40;41.60;;;;;;5016014;28;20124;-40
2021/04/25 16:12:44;;;;;;;4.35;1.30;;;24.30;41.20;;;;;;5024475;28;20499;-45
2021/04/25 16:15:11;;;;;;;1.63;1.38;;;24.30;41.60;;;;;;5023486;28;20080;-45
2021/04/25 16:17:38;;;;;;;1.08;1.02;;;24.40;41.40;;;;;;5026932;28;20440;-42
2021/04/25 16:20:05;;;;;;;1.30;1.20;;;24.40;41.60;;;;;;5028451;28;20064;-39
2021/04/25 16:22:31;;;;;;;2.38;1.00;;;24.50;41.40;;;;;;5024390;28;20049;-41
2021/04/25 16:24:56;;;;;;;3.03;1.00;;;24.50;42.60;;;;;;5023468;28;20722;-42
2021/04/25 16:27:22;;;;;;;2.22;0.95;;;24.50;41.40;;;;;;5023220;28;20025;-41
2021/04/25 16:29:47;;;;;;;1.20;1.10;;;24.50;41.40;;;;;;5023537;28;21177;-41
2021/04/25 16:32:13;;;;;;;1.33;1.23;;;24.60;40.90;;;;;;5024505;28;20160;-40
2021/04/25 16:34:39;;;;;;;2.85;1.10;;;24.60;41.10;;;;;;5028099;28;20421;-42
2021/04/25 16:37:04;;;;;;;1.30;1.20;;;24.70;40.00;;;;;;5026001;28;20045;-42
2021/04/25 16:39:30;;;;;;;2.25;1.17;;;24.70;40.40;;;;;;5023915;28;20113;-40
2021/04/25 16:41:56;;;;;;;1.60;1.50;;;24.80;39.90;;;;;;5023900;28;20115;-43
2021/04/25 16:44:22;;;;;;;1.60;1.23;;;24.80;39.80;;;;;;5025411;28;20061;-41
2021/04/25 16:46:47;;;;;;;1.83;1.27;;;24.80;39.50;;;;;;5027825;28;20095;-41
2021/04/25 16:49:14;;;;;;;2.67;1.25;;;24.90;39.40;;;;;;5025856;28;20537;-42
2021/04/25 16:51:39;;;;;;;1.20;1.10;;;24.80;40.10;;;;;;5022221;28;20099;-42
2021/04/25 16:54:05;;;;;;;4.90;1.00;;;24.80;40.00;;;;;;5012267;28;20049;-40
2021/04/25 16:56:33;;;;;;;1.00;1.00;;;24.70;39.30;;;;;;5022607;28;20041;-41
2021/04/25 16:58:58;;;;;;;1.20;1.10;;;24.60;40.00;;;;;;5025570;28;20125;-42
2021/04/25 17:01:24;;;;;;;2.15;1.25;;;24.60;39.70;;;;;;5023896;28;20038;-44
2021/04/25 17:03:49;;;;;;;0.98;0.90;;;24.60;39.70;;;;;;5023375;28;20491;-42
2021/04/25 17:06:15;;;;;;;1.10;1.00;;;24.60;40.80;;;;;;5024416;28;20045;-42
2021/04/25 17:08:40;;;;;;;3.40;1.10;;;24.70;40.40;;;;;;5021260;28;20140;-43
2021/04/25 17:11:06;;;;;;;1.02;0.85;;;24.60;40.90;;;;;;5027820;28;20470;-42
2021/04/25 17:13:32;;;;;;;1.20;1.10;;;24.70;40.40;;;;;;5026324;28;20029;-42
2021/04/25 17:15:57;;;;;;;2.22;0.93;;;24.70;40.50;;;;;;5022999;28;20046;-43
2021/04/25 17:18:23;;;;;;;1.20;0.88;;;24.70;41.70;;;;;;5023102;28;20038;-43
2021/04/25 17:20:48;;;;;;;1.00;0.90;;;24.70;40.90;;;;;;5023237;28;20479;-44
2021/04/25 17:23:14;;;;;;;1.15;0.90;;;24.70;40.30;;;;;;5022748;28;20049;-42
2021/04/25 17:25:40;;;;;;;1.60;1.10;;;24.80;41.80;;;;;;5026434;28;20533;-44
2021/04/25 17:28:06;;;;;;;1.30;0.80;;;24.80;41.00;;;;;;5023352;28;20037;-43
2021/04/25 17:30:32;;;;;;;1.25;1.13;;;24.90;40.20;;;;;;5024092;28;20046;-43
2021/04/25 17:32:57;;;;;;;1.10;1.00;;;24.90;40.10;;;;;;5023689;28;20553;-42
2021/04/25 17:35:24;;;;;;;2.15;1.08;;;25.00;40.20;;;;;;5024087;28;20045;-44
2021/04/25 17:37:50;;;;;;;1.90;1.15;;;24.90;40.90;;;;;;5026671;28;20223;-41
2021/04/25 17:40:17;;;;;;;1.25;1.15;;;24.90;41.10;;;;;;5024171;28;20483;-42
2021/04/25 17:42:43;;;;;;;2.88;1.20;;;24.60;38.80;;;;;;5019883;28;20047;-39
2021/04/25 17:45:10;;;;;;;2.90;1.92;;;24.50;38.60;;;;;;5020325;28;20410;-43
2021/04/25 17:47:35;;;;;;;1.60;1.42;;;24.30;36.90;;;;;;4700552;28;10001306;-43
2021/04/25 17:50:01;;;;;;;2.35;1.60;;;24.20;36.80;;;;;;5046238;28;20048;-41
2021/04/25 17:52:27;;;;;;;3.03;1.75;;;24.10;35.70;;;;;;5019471;28;20049;-39
2021/04/25 17:54:53;;;;;;;2.63;1.77;;;24.10;35.50;;;;;;5020364;28;20641;-42
2021/04/25 17:57:18;;;;;;;1.60;1.50;;;24.00;35.20;;;;;;5016997;28;20554;-40
2021/04/25 17:59:44;;;;;;;4.60;2.00;;;24.00;34.70;;;;;;5017555;28;20144;-41
2021/04/25 18:02:10;;;;;;;1.83;1.73;;;24.00;35.10;;;;;;5017206;28;20073;-41
2021/04/25 18:04:35;;;;;;;2.15;1.42;;;24.10;35.30;;;;;;5019194;28;20052;-42
2021/04/25 18:07:01;;;;;;;2.38;2.20;;;24.10;34.90;;;;;;5017218;28;20129;-40
2021/04/25 18:09:26;;;;;;;2.28;2.05;;;24.10;34.20;;;;;;5016300;28;20037;-45
2021/04/25 18:11:52;;;;;;;2.88;2.00;;;24.10;34.40;;;;;;5017450;28;20062;-38
2021/04/25 18:14:17;;;;;;;2.55;2.35;;;23.90;35.00;;;;;;5018386;28;20049;-43
2021/04/25 18:16:43;;;;;;;2.70;2.45;;;24.00;34.20;;;;;;5018496;28;20060;-42
2021/04/25 18:19:09;;;;;;;2.28;2.08;;;23.90;34.80;;;;;;5018789;28;20499;-42
2021/04/25 18:21:34;;;;;;;2.83;2.28;;;23.90;34.50;;;;;;5018991;28;20053;-38
2021/04/25 18:24:05;;;;;;;2.47;1.98;;;23.80;33.60;;;;;;5018765;28;20894;-40
2021/04/25 18:26:31;;;;;;;3.40;2.00;;;23.90;34.60;;;;;;5018186;28;20054;-42
2021/04/25 18:28:56;;;;;;;3.00;2.17;;;23.80;34.40;;;;;;5020178;28;20091;-42